Detall de PIREP

Printer-friendly versionPDF version

[2012/10/10 16:11:00]
Flight IATA:CT3119
Pilot Number:012
Company ICAO:CAT
Aircraft Type:A343/E
PAX:295
Departing Airport: LFMP
Destination Airport: LEPA
Alternate Airport:LEBL
Online: VATSIM
Route:BGR A27 KENAS
Flight Level:F190
No Slew and time accel
No pause
Crash detect
Detect pilot in Cockpit between each 30 and 45 minutes
16:11 Zero fuel Weight: 368699 Lbs, Fuel Weight: 64911 Lbs
16:11 VATSIM:LFMP 101600Z 21005KT 9999 SCT058 SCT120 24/15 Q1012 NOSIG
16:11 VATSIM:LEPA 101600Z 22006KT CAVOK 25/21 Q1012 NOSIG
16:11 VOICE CATALONIAN
16:12 Parking Brakes off
16:17 Take-off
16:17 Take off Weight: 432048 Lbs
16:17 Wind: 233º @ 006 Knots Heading: 327º
16:17 POS N42º 45´ 11´´ E002º 51´ 45´´
16:17 Gear Up: 182 Knots
16:17 Flaps:2 at 182 Knots
16:18 Flaps:1 at 189 Knots
16:18 Flaps:0 at 207 Knots
16:24 TOC
16:24 Fuel Weight: 59166 Lb
16:32 Wind:274º@047 Knots Heading: 188º Ground Speed: 411 Knots Altitude 18969 ft
16:40 TOD
16:40 Fuel Weight: 55260 Lb
16:47 Wind:257º@013 Knots Heading: 207º Ground Speed: 283 Knots Altitude 9107 ft
16:51 Flaps:1 at 230 Knots
16:52 Flaps:3 at 148 Knots
16:53 Flaps:4 at 148 Knots
16:53 Gear Down: 143 Knots
16:54 Flaps:5 at 147 Knots
16:58 TouchDown:Rate -226 ft/min Speed: 135 Knots
16:58 Flaps:3 at 71 Knots
16:59 VATSIM:LEPA 101630Z 23006KT CAVOK 24/21 Q1012 NOSIG
16:59 Land
16:59 Wind:222º@006 Knots
16:59 Heading: 237º
16:59 Flight Duration: 00:42
16:59 Landing Weight: 420194 Lbs
16:59 POS N39º 32´ 48´´ E002º 44´ 37´´
17:02 Parking brakes on
17:02 Block to Block Duration: 00:50
17:02 Final Fuel: 50996 Lbls
17:02 Spent Fuel: 13915 Lbls
17:02 Flight Length: 217 NM
17:02 TOD Land Length: 72 NM

Exportar CSV

Powered by Drupal - Modified by Danger4k